sensor_id;sensor_type;location;lat;lon;timestamp;P1;durP1;ratioP1;P2;durP2;ratioP2
79074;SDS011;68476;42.710;23.388;2023-07-31T00:01:52;4.88;;;4.20;;
79074;SDS011;68476;42.710;23.388;2023-07-31T00:04:17;5.90;;;4.13;;
79074;SDS011;68476;42.710;23.388;2023-07-31T00:06:42;5.32;;;4.10;;
79074;SDS011;68476;42.710;23.388;2023-07-31T00:09:08;4.68;;;4.05;;
79074;SDS011;68476;42.710;23.388;2023-07-31T00:11:33;4.10;;;3.30;;
79074;SDS011;68476;42.710;23.388;2023-07-31T00:13:58;5.18;;;4.47;;
79074;SDS011;68476;42.710;23.388;2023-07-31T00:16:24;5.07;;;4.13;;
79074;SDS011;68476;42.710;23.388;2023-07-31T00:18:49;4.63;;;3.53;;
79074;SDS011;68476;42.710;23.388;2023-07-31T00:21:15;6.25;;;4.10;;
79074;SDS011;68476;42.710;23.388;2023-07-31T00:23:40;5.00;;;3.95;;
79074;SDS011;68476;42.710;23.388;2023-07-31T00:26:05;4.30;;;3.90;;
79074;SDS011;68476;42.710;23.388;2023-07-31T00:28:31;4.47;;;4.03;;
79074;SDS011;68476;42.710;23.388;2023-07-31T00:30:56;4.65;;;3.95;;
79074;SDS011;68476;42.710;23.388;2023-07-31T00:33:21;4.85;;;4.03;;
79074;SDS011;68476;42.710;23.388;2023-07-31T00:35:48;5.00;;;4.32;;
79074;SDS011;68476;42.710;23.388;2023-07-31T00:38:13;4.68;;;4.20;;
79074;SDS011;68476;42.710;23.388;2023-07-31T00:40:38;5.00;;;4.50;;
79074;SDS011;68476;42.710;23.388;2023-07-31T00:43:04;5.85;;;4.30;;
79074;SDS011;68476;42.710;23.388;2023-07-31T00:45:29;4.90;;;4.40;;
79074;SDS011;68476;42.710;23.388;2023-07-31T00:47:56;4.90;;;4.25;;
79074;SDS011;68476;42.710;23.388;2023-07-31T00:50:24;5.70;;;4.63;;
79074;SDS011;68476;42.710;23.388;2023-07-31T00:55:15;5.25;;;4.63;;
79074;SDS011;68476;42.710;23.388;2023-07-31T00:57:41;5.85;;;4.82;;
79074;SDS011;68476;42.710;23.388;2023-07-31T01:00:07;6.20;;;4.82;;
79074;SDS011;68476;42.710;23.388;2023-07-31T01:02:33;5.40;;;4.90;;
79074;SDS011;68476;42.710;23.388;2023-07-31T01:04:59;5.55;;;5.00;;
79074;SDS011;68476;42.710;23.388;2023-07-31T01:07:42;5.70;;;4.95;;
79074;SDS011;68476;42.710;23.388;2023-07-31T01:13:02;5.88;;;5.32;;
79074;SDS011;68476;42.710;23.388;2023-07-31T01:15:28;6.53;;;5.90;;
79074;SDS011;68476;42.710;23.388;2023-07-31T01:17:53;5.72;;;4.97;;
79074;SDS011;68476;42.710;23.388;2023-07-31T01:20:23;7.18;;;6.05;;
79074;SDS011;68476;42.710;23.388;2023-07-31T01:28:32;9.20;;;8.20;;
79074;SDS011;68476;42.710;23.388;2023-07-31T01:31:03;9.20;;;8.32;;
79074;SDS011;68476;42.710;23.388;2023-07-31T01:33:32;9.82;;;8.63;;
79074;SDS011;68476;42.710;23.388;2023-07-31T01:35:59;9.40;;;8.40;;
79074;SDS011;68476;42.710;23.388;2023-07-31T01:38:25;11.80;;;9.80;;
79074;SDS011;68476;42.710;23.388;2023-07-31T01:40:52;10.63;;;9.50;;
79074;SDS011;68476;42.710;23.388;2023-07-31T01:43:18;11.57;;;10.43;;
79074;SDS011;68476;42.710;23.388;2023-07-31T01:45:43;11.52;;;10.32;;
79074;SDS011;68476;42.710;23.388;2023-07-31T01:48:09;12.13;;;10.82;;
79074;SDS011;68476;42.710;23.388;2023-07-31T01:50:34;12.52;;;11.27;;
79074;SDS011;68476;42.710;23.388;2023-07-31T01:53:00;12.80;;;11.50;;
79074;SDS011;68476;42.710;23.388;2023-07-31T01:55:25;12.68;;;11.38;;
79074;SDS011;68476;42.710;23.388;2023-07-31T01:57:51;15.60;;;12.90;;
79074;SDS011;68476;42.710;23.388;2023-07-31T02:00:17;13.43;;;11.95;;
79074;SDS011;68476;42.710;23.388;2023-07-31T02:02:43;16.25;;;13.00;;
79074;SDS011;68476;42.710;23.388;2023-07-31T02:05:08;15.93;;;13.30;;
79074;SDS011;68476;42.710;23.388;2023-07-31T02:07:33;15.32;;;13.38;;
79074;SDS011;68476;42.710;23.388;2023-07-31T02:09:59;15.07;;;13.50;;
79074;SDS011;68476;42.710;23.388;2023-07-31T02:12:24;15.23;;;13.63;;
79074;SDS011;68476;42.710;23.388;2023-07-31T02:14:50;15.43;;;13.35;;
79074;SDS011;68476;42.710;23.388;2023-07-31T02:17:15;15.13;;;12.85;;
79074;SDS011;68476;42.710;23.388;2023-07-31T02:19:40;14.00;;;12.23;;
79074;SDS011;68476;42.710;23.388;2023-07-31T02:22:06;16.63;;;13.50;;
79074;SDS011;68476;42.710;23.388;2023-07-31T02:24:31;15.57;;;13.88;;
79074;SDS011;68476;42.710;23.388;2023-07-31T02:26:57;16.67;;;13.98;;
79074;SDS011;68476;42.710;23.388;2023-07-31T02:29:22;15.60;;;13.40;;
79074;SDS011;68476;42.710;23.388;2023-07-31T02:31:48;17.55;;;15.27;;
79074;SDS011;68476;42.710;23.388;2023-07-31T02:34:13;16.23;;;14.18;;
79074;SDS011;68476;42.710;23.388;2023-07-31T02:36:39;18.70;;;15.05;;
79074;SDS011;68476;42.710;23.388;2023-07-31T02:39:04;17.52;;;15.02;;
79074;SDS011;68476;42.710;23.388;2023-07-31T02:41:29;18.73;;;15.25;;
79074;SDS011;68476;42.710;23.388;2023-07-31T02:43:55;20.42;;;15.80;;
79074;SDS011;68476;42.710;23.388;2023-07-31T02:46:20;19.23;;;16.58;;
79074;SDS011;68476;42.710;23.388;2023-07-31T02:48:49;18.20;;;16.08;;
79074;SDS011;68476;42.710;23.388;2023-07-31T02:51:14;20.95;;;16.45;;
79074;SDS011;68476;42.710;23.388;2023-07-31T02:53:40;18.70;;;16.00;;
79074;SDS011;68476;42.710;23.388;2023-07-31T02:56:05;20.85;;;17.33;;
79074;SDS011;68476;42.710;23.388;2023-07-31T02:58:30;19.75;;;17.30;;
79074;SDS011;68476;42.710;23.388;2023-07-31T03:00:57;20.92;;;17.63;;
79074;SDS011;68476;42.710;23.388;2023-07-31T03:03:23;20.30;;;17.38;;
79074;SDS011;68476;42.710;23.388;2023-07-31T03:05:49;19.65;;;17.15;;
79074;SDS011;68476;42.710;23.388;2023-07-31T03:08:14;23.65;;;18.17;;
79074;SDS011;68476;42.710;23.388;2023-07-31T03:10:40;19.38;;;16.35;;
79074;SDS011;68476;42.710;23.388;2023-07-31T03:13:06;19.70;;;17.48;;
79074;SDS011;68476;42.710;23.388;2023-07-31T03:15:32;20.48;;;18.08;;
79074;SDS011;68476;42.710;23.388;2023-07-31T03:17:57;19.27;;;16.20;;
79074;SDS011;68476;42.710;23.388;2023-07-31T03:20:23;23.92;;;18.38;;
79074;SDS011;68476;42.710;23.388;2023-07-31T03:22:48;21.40;;;16.70;;
79074;SDS011;68476;42.710;23.388;2023-07-31T03:25:13;20.90;;;17.25;;
79074;SDS011;68476;42.710;23.388;2023-07-31T03:27:39;19.58;;;16.83;;
79074;SDS011;68476;42.710;23.388;2023-07-31T03:30:05;23.17;;;19.33;;
79074;SDS011;68476;42.710;23.388;2023-07-31T03:32:31;21.98;;;17.58;;
79074;SDS011;68476;42.710;23.388;2023-07-31T03:34:57;19.33;;;17.30;;
79074;SDS011;68476;42.710;23.388;2023-07-31T03:37:22;19.65;;;16.92;;
79074;SDS011;68476;42.710;23.388;2023-07-31T03:39:48;21.80;;;18.65;;
79074;SDS011;68476;42.710;23.388;2023-07-31T03:42:13;22.13;;;18.30;;
79074;SDS011;68476;42.710;23.388;2023-07-31T03:44:38;21.83;;;18.08;;
79074;SDS011;68476;42.710;23.388;2023-07-31T03:47:04;19.95;;;17.27;;
79074;SDS011;68476;42.710;23.388;2023-07-31T03:49:30;22.45;;;16.67;;
79074;SDS011;68476;42.710;23.388;2023-07-31T03:51:55;20.45;;;16.90;;
79074;SDS011;68476;42.710;23.388;2023-07-31T03:54:21;19.90;;;16.42;;
79074;SDS011;68476;42.710;23.388;2023-07-31T03:56:46;20.48;;;16.88;;
79074;SDS011;68476;42.710;23.388;2023-07-31T03:59:11;20.08;;;16.08;;
79074;SDS011;68476;42.710;23.388;2023-07-31T04:01:37;20.35;;;16.77;;
79074;SDS011;68476;42.710;23.388;2023-07-31T04:04:02;23.15;;;17.55;;
79074;SDS011;68476;42.710;23.388;2023-07-31T04:06:28;24.73;;;18.40;;
79074;SDS011;68476;42.710;23.388;2023-07-31T04:08:53;20.42;;;17.45;;
79074;SDS011;68476;42.710;23.388;2023-07-31T04:11:18;19.30;;;16.42;;
79074;SDS011;68476;42.710;23.388;2023-07-31T04:13:44;20.33;;;17.00;;
79074;SDS011;68476;42.710;23.388;2023-07-31T04:16:09;21.17;;;16.90;;
79074;SDS011;68476;42.710;23.388;2023-07-31T04:18:35;20.38;;;16.73;;
79074;SDS011;68476;42.710;23.388;2023-07-31T04:21:00;21.92;;;16.60;;
79074;SDS011;68476;42.710;23.388;2023-07-31T04:23:27;21.85;;;17.55;;
79074;SDS011;68476;42.710;23.388;2023-07-31T04:25:53;21.33;;;18.30;;
79074;SDS011;68476;42.710;23.388;2023-07-31T04:28:18;20.85;;;16.60;;
79074;SDS011;68476;42.710;23.388;2023-07-31T04:30:44;21.00;;;17.25;;
79074;SDS011;68476;42.710;23.388;2023-07-31T04:33:09;21.25;;;16.80;;
79074;SDS011;68476;42.710;23.388;2023-07-31T04:35:34;22.58;;;17.35;;
79074;SDS011;68476;42.710;23.388;2023-07-31T04:38:00;21.13;;;17.00;;
79074;SDS011;68476;42.710;23.388;2023-07-31T04:40:25;22.65;;;17.40;;
79074;SDS011;68476;42.710;23.388;2023-07-31T04:42:51;22.55;;;17.63;;
79074;SDS011;68476;42.710;23.388;2023-07-31T04:45:16;21.75;;;16.52;;
79074;SDS011;68476;42.710;23.388;2023-07-31T04:47:41;23.92;;;17.58;;
79074;SDS011;68476;42.710;23.388;2023-07-31T04:50:07;21.75;;;16.58;;
79074;SDS011;68476;42.710;23.388;2023-07-31T04:52:33;23.92;;;16.95;;
79074;SDS011;68476;42.710;23.388;2023-07-31T04:54:58;22.08;;;17.35;;
79074;SDS011;68476;42.710;23.388;2023-07-31T04:57:24;20.35;;;16.55;;
79074;SDS011;68476;42.710;23.388;2023-07-31T04:59:49;23.83;;;18.17;;
79074;SDS011;68476;42.710;23.388;2023-07-31T05:02:14;22.75;;;17.10;;
79074;SDS011;68476;42.710;23.388;2023-07-31T05:04:40;20.75;;;16.27;;
79074;SDS011;68476;42.710;23.388;2023-07-31T05:07:05;20.88;;;15.93;;
79074;SDS011;68476;42.710;23.388;2023-07-31T05:09:31;19.00;;;15.27;;
79074;SDS011;68476;42.710;23.388;2023-07-31T05:11:56;20.52;;;16.55;;
79074;SDS011;68476;42.710;23.388;2023-07-31T05:14:22;19.60;;;16.38;;
79074;SDS011;68476;42.710;23.388;2023-07-31T05:16:48;19.13;;;16.13;;
79074;SDS011;68476;42.710;23.388;2023-07-31T05:19:13;19.92;;;15.85;;
79074;SDS011;68476;42.710;23.388;2023-07-31T05:21:39;22.23;;;16.65;;
79074;SDS011;68476;42.710;23.388;2023-07-31T05:24:05;19.98;;;15.98;;
79074;SDS011;68476;42.710;23.388;2023-07-31T05:26:30;21.42;;;17.00;;
79074;SDS011;68476;42.710;23.388;2023-07-31T05:28:55;17.65;;;14.75;;
79074;SDS011;68476;42.710;23.388;2023-07-31T05:31:21;16.90;;;14.18;;
79074;SDS011;68476;42.710;23.388;2023-07-31T05:33:47;17.80;;;14.15;;
79074;SDS011;68476;42.710;23.388;2023-07-31T05:36:14;15.65;;;13.35;;
79074;SDS011;68476;42.710;23.388;2023-07-31T05:38:40;16.30;;;12.70;;
79074;SDS011;68476;42.710;23.388;2023-07-31T05:41:05;16.20;;;13.15;;
79074;SDS011;68476;42.710;23.388;2023-07-31T05:43:31;15.40;;;13.68;;
79074;SDS011;68476;42.710;23.388;2023-07-31T05:45:56;13.55;;;12.07;;
79074;SDS011;68476;42.710;23.388;2023-07-31T05:48:21;13.32;;;11.98;;
79074;SDS011;68476;42.710;23.388;2023-07-31T05:50:47;14.40;;;12.93;;
79074;SDS011;68476;42.710;23.388;2023-07-31T05:53:12;14.48;;;12.40;;
79074;SDS011;68476;42.710;23.388;2023-07-31T05:55:38;14.57;;;12.07;;
79074;SDS011;68476;42.710;23.388;2023-07-31T05:58:03;11.90;;;10.45;;
79074;SDS011;68476;42.710;23.388;2023-07-31T06:00:29;11.35;;;10.18;;
79074;SDS011;68476;42.710;23.388;2023-07-31T06:02:54;10.73;;;9.57;;
79074;SDS011;68476;42.710;23.388;2023-07-31T06:05:19;10.63;;;9.63;;
79074;SDS011;68476;42.710;23.388;2023-07-31T06:07:45;11.05;;;9.80;;
79074;SDS011;68476;42.710;23.388;2023-07-31T06:10:12;10.27;;;8.23;;
79074;SDS011;68476;42.710;23.388;2023-07-31T06:12:38;11.77;;;9.13;;
79074;SDS011;68476;42.710;23.388;2023-07-31T06:15:03;10.25;;;9.13;;
79074;SDS011;68476;42.710;23.388;2023-07-31T06:17:29;10.63;;;9.52;;
79074;SDS011;68476;42.710;23.388;2023-07-31T06:19:56;10.35;;;8.77;;
79074;SDS011;68476;42.710;23.388;2023-07-31T06:22:21;10.52;;;8.52;;
79074;SDS011;68476;42.710;23.388;2023-07-31T06:24:47;9.20;;;7.75;;
79074;SDS011;68476;42.710;23.388;2023-07-31T06:27:12;9.70;;;8.38;;
79074;SDS011;68476;42.710;23.388;2023-07-31T06:29:37;8.75;;;7.85;;
79074;SDS011;68476;42.710;23.388;2023-07-31T06:32:03;10.40;;;7.25;;
79074;SDS011;68476;42.710;23.388;2023-07-31T06:34:29;8.95;;;7.28;;
79074;SDS011;68476;42.710;23.388;2023-07-31T06:36:55;8.80;;;7.38;;
79074;SDS011;68476;42.710;23.388;2023-07-31T06:39:21;7.13;;;6.45;;
79074;SDS011;68476;42.710;23.388;2023-07-31T06:41:46;9.40;;;7.20;;
79074;SDS011;68476;42.710;23.388;2023-07-31T06:44:12;7.38;;;6.68;;
79074;SDS011;68476;42.710;23.388;2023-07-31T06:46:37;9.27;;;5.78;;
79074;SDS011;68476;42.710;23.388;2023-07-31T06:49:02;7.43;;;6.03;;
79074;SDS011;68476;42.710;23.388;2023-07-31T06:51:28;7.55;;;6.35;;
79074;SDS011;68476;42.710;23.388;2023-07-31T06:53:53;7.22;;;6.20;;
79074;SDS011;68476;42.710;23.388;2023-07-31T06:56:20;7.72;;;6.20;;
79074;SDS011;68476;42.710;23.388;2023-07-31T06:58:46;7.90;;;5.68;;
79074;SDS011;68476;42.710;23.388;2023-07-31T07:01:11;6.60;;;5.40;;
79074;SDS011;68476;42.710;23.388;2023-07-31T07:03:36;6.78;;;5.13;;
79074;SDS011;68476;42.710;23.388;2023-07-31T07:06:02;9.27;;;5.15;;
79074;SDS011;68476;42.710;23.388;2023-07-31T07:08:27;5.47;;;4.95;;
79074;SDS011;68476;42.710;23.388;2023-07-31T07:10:53;6.38;;;5.03;;
79074;SDS011;68476;42.710;23.388;2023-07-31T07:13:19;7.35;;;5.35;;
79074;SDS011;68476;42.710;23.388;2023-07-31T07:15:47;6.35;;;5.07;;
79074;SDS011;68476;42.710;23.388;2023-07-31T07:18:14;6.43;;;5.60;;
79074;SDS011;68476;42.710;23.388;2023-07-31T07:20:39;5.95;;;4.75;;
79074;SDS011;68476;42.710;23.388;2023-07-31T07:23:05;7.22;;;5.30;;
79074;SDS011;68476;42.710;23.388;2023-07-31T07:25:30;7.57;;;5.15;;
79074;SDS011;68476;42.710;23.388;2023-07-31T07:27:56;4.60;;;4.05;;
79074;SDS011;68476;42.710;23.388;2023-07-31T07:30:21;5.53;;;4.72;;
79074;SDS011;68476;42.710;23.388;2023-07-31T07:32:47;5.68;;;4.95;;
79074;SDS011;68476;42.710;23.388;2023-07-31T07:35:13;7.43;;;5.20;;
79074;SDS011;68476;42.710;23.388;2023-07-31T07:37:38;6.82;;;5.22;;
79074;SDS011;68476;42.710;23.388;2023-07-31T07:40:03;5.63;;;5.03;;
79074;SDS011;68476;42.710;23.388;2023-07-31T07:42:30;8.02;;;4.93;;
79074;SDS011;68476;42.710;23.388;2023-07-31T07:44:55;5.53;;;4.80;;
79074;SDS011;68476;42.710;23.388;2023-07-31T07:47:21;5.65;;;4.60;;
79074;SDS011;68476;42.710;23.388;2023-07-31T07:49:46;8.75;;;4.55;;
79074;SDS011;68476;42.710;23.388;2023-07-31T07:52:11;6.55;;;4.60;;
79074;SDS011;68476;42.710;23.388;2023-07-31T07:54:37;7.35;;;4.93;;
79074;SDS011;68476;42.710;23.388;2023-07-31T07:57:02;5.45;;;4.32;;
79074;SDS011;68476;42.710;23.388;2023-07-31T07:59:28;7.22;;;4.13;;
79074;SDS011;68476;42.710;23.388;2023-07-31T08:01:53;5.22;;;4.47;;
79074;SDS011;68476;42.710;23.388;2023-07-31T08:04:19;4.75;;;4.10;;
79074;SDS011;68476;42.710;23.388;2023-07-31T08:06:44;5.47;;;4.00;;
79074;SDS011;68476;42.710;23.388;2023-07-31T08:09:10;9.10;;;4.38;;
79074;SDS011;68476;42.710;23.388;2023-07-31T08:11:35;6.55;;;4.43;;
79074;SDS011;68476;42.710;23.388;2023-07-31T08:14:01;6.43;;;4.50;;
79074;SDS011;68476;42.710;23.388;2023-07-31T08:16:26;5.30;;;4.13;;
79074;SDS011;68476;42.710;23.388;2023-07-31T08:18:52;9.38;;;4.07;;
79074;SDS011;68476;42.710;23.388;2023-07-31T08:21:17;5.30;;;3.63;;
79074;SDS011;68476;42.710;23.388;2023-07-31T08:23:43;4.88;;;4.00;;
79074;SDS011;68476;42.710;23.388;2023-07-31T08:26:17;4.85;;;4.25;;
79074;SDS011;68476;42.710;23.388;2023-07-31T08:28:44;4.25;;;3.65;;
79074;SDS011;68476;42.710;23.388;2023-07-31T08:31:09;4.55;;;4.10;;
79074;SDS011;68476;42.710;23.388;2023-07-31T08:33:35;4.70;;;3.60;;
79074;SDS011;68476;42.710;23.388;2023-07-31T08:36:01;4.90;;;4.40;;
79074;SDS011;68476;42.710;23.388;2023-07-31T08:38:26;4.07;;;3.67;;
79074;SDS011;68476;42.710;23.388;2023-07-31T08:40:54;4.85;;;3.67;;
79074;SDS011;68476;42.710;23.388;2023-07-31T08:43:21;5.65;;;4.03;;
79074;SDS011;68476;42.710;23.388;2023-07-31T08:45:50;7.93;;;4.00;;
79074;SDS011;68476;42.710;23.388;2023-07-31T08:48:17;5.95;;;3.97;;
79074;SDS011;68476;42.710;23.388;2023-07-31T08:50:43;5.35;;;4.25;;
79074;SDS011;68476;42.710;23.388;2023-07-31T08:53:08;5.78;;;4.20;;
79074;SDS011;68476;42.710;23.388;2023-07-31T08:55:34;4.43;;;3.47;;
79074;SDS011;68476;42.710;23.388;2023-07-31T08:58:01;5.60;;;4.20;;
79074;SDS011;68476;42.710;23.388;2023-07-31T09:00:29;4.72;;;3.67;;
79074;SDS011;68476;42.710;23.388;2023-07-31T09:03:00;5.55;;;3.65;;
79074;SDS011;68476;42.710;23.388;2023-07-31T09:05:29;4.85;;;4.00;;
79074;SDS011;68476;42.710;23.388;2023-07-31T09:07:55;5.15;;;3.90;;
79074;SDS011;68476;42.710;23.388;2023-07-31T09:10:21;5.78;;;3.47;;
79074;SDS011;68476;42.710;23.388;2023-07-31T09:12:46;5.25;;;3.80;;
79074;SDS011;68476;42.710;23.388;2023-07-31T09:15:14;4.03;;;3.55;;
79074;SDS011;68476;42.710;23.388;2023-07-31T09:17:40;5.35;;;3.00;;
79074;SDS011;68476;42.710;23.388;2023-07-31T09:22:41;6.90;;;3.65;;
79074;SDS011;68476;42.710;23.388;2023-07-31T09:25:17;3.63;;;3.13;;
79074;SDS011;68476;42.710;23.388;2023-07-31T09:27:54;3.80;;;3.35;;
79074;SDS011;68476;42.710;23.388;2023-07-31T09:30:22;4.40;;;4.00;;
79074;SDS011;68476;42.710;23.388;2023-07-31T09:32:48;4.40;;;3.80;;
79074;SDS011;68476;42.710;23.388;2023-07-31T09:35:21;6.43;;;4.20;;
79074;SDS011;68476;42.710;23.388;2023-07-31T09:37:54;4.00;;;3.50;;
79074;SDS011;68476;42.710;23.388;2023-07-31T09:40:25;8.63;;;3.90;;
79074;SDS011;68476;42.710;23.388;2023-07-31T09:42:51;4.13;;;3.20;;
79074;SDS011;68476;42.710;23.388;2023-07-31T09:45:16;3.90;;;3.42;;
79074;SDS011;68476;42.710;23.388;2023-07-31T09:47:47;3.90;;;3.50;;
79074;SDS011;68476;42.710;23.388;2023-07-31T09:50:15;3.70;;;3.20;;
79074;SDS011;68476;42.710;23.388;2023-07-31T09:52:41;4.93;;;3.50;;
79074;SDS011;68476;42.710;23.388;2023-07-31T09:55:07;4.18;;;3.30;;
79074;SDS011;68476;42.710;23.388;2023-07-31T09:57:34;4.50;;;3.38;;
79074;SDS011;68476;42.710;23.388;2023-07-31T10:00:04;3.85;;;3.10;;
79074;SDS011;68476;42.710;23.388;2023-07-31T10:02:30;3.53;;;2.97;;
79074;SDS011;68476;42.710;23.388;2023-07-31T10:04:57;3.50;;;2.92;;
79074;SDS011;68476;42.710;23.388;2023-07-31T10:07:27;3.85;;;2.85;;
79074;SDS011;68476;42.710;23.388;2023-07-31T10:09:56;3.53;;;3.00;;
79074;SDS011;68476;42.710;23.388;2023-07-31T10:12:25;4.20;;;2.90;;
79074;SDS011;68476;42.710;23.388;2023-07-31T10:14:55;4.63;;;2.90;;
79074;SDS011;68476;42.710;23.388;2023-07-31T10:17:22;6.57;;;3.13;;
79074;SDS011;68476;42.710;23.388;2023-07-31T10:19:49;3.85;;;2.67;;
79074;SDS011;68476;42.710;23.388;2023-07-31T10:22:14;6.97;;;2.70;;
79074;SDS011;68476;42.710;23.388;2023-07-31T10:24:42;3.88;;;2.70;;
79074;SDS011;68476;42.710;23.388;2023-07-31T10:27:08;3.30;;;2.50;;
79074;SDS011;68476;42.710;23.388;2023-07-31T10:29:35;3.50;;;2.75;;
79074;SDS011;68476;42.710;23.388;2023-07-31T10:32:01;4.53;;;2.88;;
79074;SDS011;68476;42.710;23.388;2023-07-31T10:34:34;2.67;;;2.42;;
79074;SDS011;68476;42.710;23.388;2023-07-31T10:40:06;3.42;;;2.67;;
79074;SDS011;68476;42.710;23.388;2023-07-31T10:42:44;3.63;;;2.47;;
79074;SDS011;68476;42.710;23.388;2023-07-31T10:45:50;4.35;;;2.60;;
79074;SDS011;68476;42.710;23.388;2023-07-31T10:48:13;3.63;;;2.58;;
79074;SDS011;68476;42.710;23.388;2023-07-31T10:50:49;4.50;;;2.90;;
79074;SDS011;68476;42.710;23.388;2023-07-31T10:53:29;3.88;;;2.63;;
79074;SDS011;68476;42.710;23.388;2023-07-31T10:56:03;5.97;;;2.80;;
79074;SDS011;68476;42.710;23.388;2023-07-31T10:58:29;3.95;;;2.75;;
79074;SDS011;68476;42.710;23.388;2023-07-31T11:00:57;3.40;;;2.75;;
79074;SDS011;68476;42.710;23.388;2023-07-31T11:03:25;3.05;;;2.60;;
79074;SDS011;68476;42.710;23.388;2023-07-31T11:06:10;6.43;;;2.60;;
79074;SDS011;68476;42.710;23.388;2023-07-31T11:08:41;4.50;;;2.83;;
79074;SDS011;68476;42.710;23.388;2023-07-31T11:11:11;3.33;;;2.58;;
79074;SDS011;68476;42.710;23.388;2023-07-31T11:13:48;3.28;;;2.22;;
79074;SDS011;68476;42.710;23.388;2023-07-31T11:16:20;3.63;;;2.40;;
79074;SDS011;68476;42.710;23.388;2023-07-31T11:18:47;3.40;;;2.42;;
79074;SDS011;68476;42.710;23.388;2023-07-31T11:23:40;3.70;;;2.60;;
79074;SDS011;68476;42.710;23.388;2023-07-31T11:26:07;3.42;;;2.33;;
79074;SDS011;68476;42.710;23.388;2023-07-31T11:28:33;3.28;;;2.50;;
79074;SDS011;68476;42.710;23.388;2023-07-31T11:31:00;6.43;;;2.40;;
79074;SDS011;68476;42.710;23.388;2023-07-31T11:33:26;4.13;;;2.97;;
79074;SDS011;68476;42.710;23.388;2023-07-31T11:35:51;4.28;;;2.67;;
79074;SDS011;68476;42.710;23.388;2023-07-31T11:40:53;5.88;;;2.63;;
79074;SDS011;68476;42.710;23.388;2023-07-31T11:43:20;7.30;;;2.60;;
79074;SDS011;68476;42.710;23.388;2023-07-31T11:45:48;5.82;;;2.38;;
79074;SDS011;68476;42.710;23.388;2023-07-31T11:48:27;7.32;;;2.67;;
79074;SDS011;68476;42.710;23.388;2023-07-31T11:50:59;3.50;;;3.00;;
79074;SDS011;68476;42.710;23.388;2023-07-31T11:53:30;4.85;;;3.08;;
79074;SDS011;68476;42.710;23.388;2023-07-31T11:56:00;6.05;;;3.20;;
79074;SDS011;68476;42.710;23.388;2023-07-31T11:58:29;5.68;;;2.70;;
79074;SDS011;68476;42.710;23.388;2023-07-31T12:00:56;3.88;;;3.30;;
79074;SDS011;68476;42.710;23.388;2023-07-31T12:03:24;3.88;;;2.70;;
79074;SDS011;68476;42.710;23.388;2023-07-31T12:05:50;3.15;;;2.45;;
79074;SDS011;68476;42.710;23.388;2023-07-31T12:08:15;3.53;;;2.58;;
79074;SDS011;68476;42.710;23.388;2023-07-31T12:10:41;4.07;;;2.70;;
79074;SDS011;68476;42.710;23.388;2023-07-31T12:13:08;3.53;;;2.70;;
79074;SDS011;68476;42.710;23.388;2023-07-31T12:15:39;4.15;;;2.80;;
79074;SDS011;68476;42.710;23.388;2023-07-31T12:20:45;4.95;;;3.08;;
79074;SDS011;68476;42.710;23.388;2023-07-31T12:23:18;6.22;;;4.78;;
79074;SDS011;68476;42.710;23.388;2023-07-31T12:26:04;6.22;;;5.18;;
79074;SDS011;68476;42.710;23.388;2023-07-31T12:28:40;7.20;;;4.65;;
79074;SDS011;68476;42.710;23.388;2023-07-31T12:33:34;5.72;;;5.07;;
79074;SDS011;68476;42.710;23.388;2023-07-31T12:36:02;5.40;;;4.75;;
79074;SDS011;68476;42.710;23.388;2023-07-31T12:38:29;6.25;;;4.75;;
79074;SDS011;68476;42.710;23.388;2023-07-31T12:40:55;5.80;;;4.80;;
79074;SDS011;68476;42.710;23.388;2023-07-31T12:43:20;10.15;;;4.68;;
79074;SDS011;68476;42.710;23.388;2023-07-31T12:45:46;5.38;;;4.63;;
79074;SDS011;68476;42.710;23.388;2023-07-31T12:48:12;5.55;;;4.45;;
79074;SDS011;68476;42.710;23.388;2023-07-31T12:50:38;6.13;;;5.32;;
79074;SDS011;68476;42.710;23.388;2023-07-31T12:53:04;5.63;;;5.03;;
79074;SDS011;68476;42.710;23.388;2023-07-31T12:55:30;6.03;;;5.43;;
79074;SDS011;68476;42.710;23.388;2023-07-31T12:57:55;5.88;;;5.28;;
79074;SDS011;68476;42.710;23.388;2023-07-31T13:00:21;5.68;;;5.18;;
79074;SDS011;68476;42.710;23.388;2023-07-31T13:02:47;6.10;;;5.50;;
79074;SDS011;68476;42.710;23.388;2023-07-31T13:05:12;5.10;;;4.60;;
79074;SDS011;68476;42.710;23.388;2023-07-31T13:07:38;5.70;;;5.03;;
79074;SDS011;68476;42.710;23.388;2023-07-31T13:10:04;4.43;;;4.00;;
79074;SDS011;68476;42.710;23.388;2023-07-31T13:12:30;5.68;;;5.18;;
79074;SDS011;68476;42.710;23.388;2023-07-31T13:14:55;5.85;;;4.95;;
79074;SDS011;68476;42.710;23.388;2023-07-31T13:17:21;4.72;;;4.25;;
79074;SDS011;68476;42.710;23.388;2023-07-31T13:19:46;6.60;;;5.15;;
79074;SDS011;68476;42.710;23.388;2023-07-31T13:22:12;5.03;;;4.38;;
79074;SDS011;68476;42.710;23.388;2023-07-31T13:24:37;5.20;;;4.70;;
79074;SDS011;68476;42.710;23.388;2023-07-31T13:27:02;5.20;;;4.70;;
79074;SDS011;68476;42.710;23.388;2023-07-31T13:29:29;5.13;;;4.63;;
79074;SDS011;68476;42.710;23.388;2023-07-31T13:31:55;5.90;;;4.78;;
79074;SDS011;68476;42.710;23.388;2023-07-31T13:34:20;4.60;;;4.20;;
79074;SDS011;68476;42.710;23.388;2023-07-31T13:36:46;4.60;;;4.20;;
79074;SDS011;68476;42.710;23.388;2023-07-31T13:39:11;4.85;;;4.20;;
79074;SDS011;68476;42.710;23.388;2023-07-31T13:41:37;14.65;;;4.78;;
79074;SDS011;68476;42.710;23.388;2023-07-31T13:44:02;4.82;;;4.35;;
79074;SDS011;68476;42.710;23.388;2023-07-31T13:46:28;5.28;;;4.53;;
79074;SDS011;68476;42.710;23.388;2023-07-31T13:48:53;7.18;;;4.60;;
79074;SDS011;68476;42.710;23.388;2023-07-31T13:51:20;5.05;;;4.55;;
79074;SDS011;68476;42.710;23.388;2023-07-31T13:53:46;6.82;;;4.60;;
79074;SDS011;68476;42.710;23.388;2023-07-31T13:56:11;4.93;;;4.22;;
79074;SDS011;68476;42.710;23.388;2023-07-31T13:58:37;4.97;;;4.57;;
79074;SDS011;68476;42.710;23.388;2023-07-31T14:01:04;5.28;;;4.78;;
79074;SDS011;68476;42.710;23.388;2023-07-31T14:03:30;6.10;;;4.35;;
79074;SDS011;68476;42.710;23.388;2023-07-31T14:05:55;4.82;;;4.32;;
79074;SDS011;68476;42.710;23.388;2023-07-31T14:08:21;4.70;;;4.18;;
79074;SDS011;68476;42.710;23.388;2023-07-31T14:10:46;4.82;;;4.20;;
79074;SDS011;68476;42.710;23.388;2023-07-31T14:13:12;5.32;;;4.82;;
79074;SDS011;68476;42.710;23.388;2023-07-31T14:15:37;5.22;;;4.55;;
79074;SDS011;68476;42.710;23.388;2023-07-31T14:18:03;5.05;;;4.55;;
79074;SDS011;68476;42.710;23.388;2023-07-31T14:20:28;5.07;;;4.63;;
79074;SDS011;68476;42.710;23.388;2023-07-31T14:22:54;5.15;;;4.55;;
79074;SDS011;68476;42.710;23.388;2023-07-31T14:25:20;5.47;;;4.18;;
79074;SDS011;68476;42.710;23.388;2023-07-31T14:27:46;4.68;;;4.20;;
79074;SDS011;68476;42.710;23.388;2023-07-31T14:30:11;6.05;;;4.25;;
79074;SDS011;68476;42.710;23.388;2023-07-31T14:32:37;5.75;;;4.43;;
79074;SDS011;68476;42.710;23.388;2023-07-31T14:35:02;5.95;;;4.20;;
79074;SDS011;68476;42.710;23.388;2023-07-31T14:37:36;4.35;;;3.95;;
79074;SDS011;68476;42.710;23.388;2023-07-31T14:40:02;7.28;;;3.85;;
79074;SDS011;68476;42.710;23.388;2023-07-31T14:42:28;5.97;;;4.32;;
79074;SDS011;68476;42.710;23.388;2023-07-31T14:44:53;4.78;;;4.32;;
79074;SDS011;68476;42.710;23.388;2023-07-31T14:47:19;5.25;;;3.97;;
79074;SDS011;68476;42.710;23.388;2023-07-31T14:49:44;4.75;;;4.35;;